createdAt,value
2022-09-09T00:01:31.890Z,19.51
2022-09-09T00:04:04.626Z,19.33
2022-09-09T00:06:37.153Z,19.46
2022-09-09T00:09:13.043Z,19.41
2022-09-09T00:12:23.990Z,19.54
2022-09-09T00:15:00.890Z,19.39
2022-09-09T00:17:40.734Z,19.48
2022-09-09T00:20:15.419Z,19.47
2022-09-09T00:22:48.768Z,19.40
2022-09-09T00:25:30.106Z,19.30
2022-09-09T00:27:57.052Z,19.31
2022-09-09T00:30:28.091Z,19.41
2022-09-09T00:33:01.047Z,19.41
2022-09-09T00:35:33.411Z,19.43
2022-09-09T00:38:11.781Z,19.39
2022-09-09T00:40:46.310Z,19.29
2022-09-09T00:43:31.938Z,19.44
2022-09-09T00:46:25.134Z,19.34
2022-09-09T00:49:10.340Z,19.31
2022-09-09T00:51:51.209Z,19.34
2022-09-09T00:54:36.918Z,19.31
2022-09-09T00:57:13.799Z,19.33
2022-09-09T00:59:51.594Z,19.32
2022-09-09T01:02:32.466Z,19.31
2022-09-09T01:05:28.116Z,19.28
2022-09-09T01:07:58.384Z,19.22
2022-09-09T01:10:54.136Z,19.23
2022-09-09T01:13:36.351Z,19.23
2022-09-09T01:16:06.872Z,19.22
2022-09-09T01:18:37.329Z,19.19
2022-09-09T01:21:23.634Z,19.04
2022-09-09T01:24:08.750Z,19.20
2022-09-09T01:26:38.518Z,19.14
2022-09-09T01:29:09.817Z,19.19
2022-09-09T01:32:00.226Z,19.17
2022-09-09T01:34:34.872Z,19.10
2022-09-09T01:37:13.193Z,19.05
2022-09-09T01:39:42.726Z,19.08
2022-09-09T01:42:12.705Z,19.11
2022-09-09T01:44:39.443Z,19.07
2022-09-09T01:47:06.824Z,19.05
2022-09-09T01:49:33.786Z,19.09
2022-09-09T01:52:00.403Z,19.07
2022-09-09T01:54:30.750Z,19.15
2022-09-09T01:57:18.775Z,19.24
2022-09-09T02:00:07.062Z,19.21
2022-09-09T02:02:57.003Z,19.12
2022-09-09T02:05:46.331Z,19.11
2022-09-09T02:08:20.001Z,19.06
2022-09-09T02:11:12.362Z,19.05
2022-09-09T02:13:39.918Z,19.26
2022-09-09T02:16:22.562Z,19.18
2022-09-09T02:19:14.178Z,19.15
2022-09-09T02:21:44.680Z,19.33
2022-09-09T02:24:14.927Z,19.10
2022-09-09T02:26:43.587Z,19.41
2022-09-09T02:29:15.306Z,19.54
2022-09-09T02:31:45.175Z,19.36
2022-09-09T02:34:13.235Z,19.42
2022-09-09T02:36:43.942Z,19.51
2022-09-09T02:39:11.598Z,19.54
2022-09-09T02:41:41.078Z,19.37
2022-09-09T02:44:17.821Z,19.62
2022-09-09T02:46:44.110Z,19.64
2022-09-09T02:49:18.033Z,19.56
2022-09-09T02:52:06.611Z,19.49
2022-09-09T02:54:37.053Z,19.23
2022-09-09T02:57:07.261Z,19.40
2022-09-09T02:59:34.637Z,19.24
2022-09-09T03:02:01.076Z,19.19
2022-09-09T03:04:27.571Z,19.33
2022-09-09T03:06:54.101Z,19.27
2022-09-09T03:09:20.582Z,19.41
2022-09-09T03:11:47.282Z,19.51
2022-09-09T03:14:13.712Z,19.46
2022-09-09T03:16:40.166Z,19.26
2022-09-09T03:19:07.291Z,19.24
2022-09-09T03:21:33.751Z,19.15
2022-09-09T03:24:00.472Z,19.18
2022-09-09T03:26:26.854Z,19.00
2022-09-09T03:28:54.162Z,19.08
2022-09-09T03:31:20.703Z,18.91
2022-09-09T03:33:47.200Z,19.00
2022-09-09T03:36:13.679Z,19.42
2022-09-09T03:38:40.360Z,19.14
2022-09-09T03:41:06.984Z,19.15
2022-09-09T03:43:33.681Z,19.36
2022-09-09T03:46:00.432Z,19.26
2022-09-09T03:48:28.955Z,19.39
2022-09-09T03:50:56.929Z,19.42
2022-09-09T03:53:25.562Z,19.11
2022-09-09T03:56:00.357Z,19.34
2022-09-09T03:58:28.168Z,19.34
2022-09-09T04:00:57.388Z,19.53
2022-09-09T04:03:28.033Z,19.34
2022-09-09T04:05:56.484Z,19.52
2022-09-09T04:08:26.224Z,19.14
2022-09-09T04:10:53.882Z,19.15
2022-09-09T04:13:20.715Z,19.16
2022-09-09T04:15:54.718Z,19.41
2022-09-09T04:18:21.566Z,19.48
2022-09-09T04:20:49.627Z,19.25
2022-09-09T04:23:16.785Z,19.41
2022-09-09T04:25:48.073Z,19.41
2022-09-09T04:28:15.615Z,19.49
2022-09-09T04:30:42.757Z,19.60
2022-09-09T04:33:10.796Z,19.52
2022-09-09T04:35:38.491Z,19.52
2022-09-09T04:38:06.352Z,19.51
2022-09-09T04:40:32.726Z,19.42
2022-09-09T04:43:00.252Z,19.47
2022-09-09T04:45:27.180Z,19.23
2022-09-09T04:47:54.629Z,19.51
2022-09-09T04:50:21.289Z,19.35
2022-09-09T04:52:47.687Z,19.54
2022-09-09T04:55:14.337Z,19.55
2022-09-09T04:57:41.040Z,19.53
2022-09-09T05:00:08.412Z,19.54
2022-09-09T05:02:39.530Z,19.60
2022-09-09T05:05:07.218Z,19.66
2022-09-09T05:07:33.593Z,19.51
2022-09-09T05:09:59.912Z,19.10
2022-09-09T05:12:26.717Z,19.52
2022-09-09T05:14:53.517Z,19.49
2022-09-09T05:17:20.087Z,19.55
2022-09-09T05:19:46.455Z,19.66
2022-09-09T05:22:12.847Z,19.59
2022-09-09T05:24:39.696Z,19.53
2022-09-09T05:27:06.932Z,19.52
2022-09-09T05:29:34.371Z,19.52
2022-09-09T05:32:01.241Z,19.49
2022-09-09T05:34:28.007Z,19.48
2022-09-09T05:36:54.597Z,19.38
2022-09-09T05:39:20.989Z,19.46
2022-09-09T05:41:47.318Z,19.52
2022-09-09T05:44:14.353Z,19.60
2022-09-09T05:46:40.759Z,19.65
2022-09-09T05:49:07.150Z,19.57
2022-09-09T05:51:33.546Z,19.40
2022-09-09T05:53:59.943Z,19.38
2022-09-09T05:56:28.794Z,19.52
2022-09-09T05:58:56.198Z,19.38
2022-09-09T06:01:24.213Z,19.47
2022-09-09T06:03:52.409Z,19.46
2022-09-09T06:06:25.136Z,19.29
2022-09-09T06:08:53.253Z,19.39
2022-09-09T06:11:23.107Z,19.58
2022-09-09T06:13:54.272Z,19.04
2022-09-09T06:16:24.640Z,19.57
2022-09-09T06:18:51.898Z,19.52
2022-09-09T06:21:23.591Z,19.48
2022-09-09T06:23:50.011Z,19.43
2022-09-09T06:26:21.668Z,19.36
2022-09-09T06:28:50.441Z,19.61
2022-09-09T06:31:18.918Z,19.66
2022-09-09T06:33:45.397Z,19.65
2022-09-09T06:36:17.049Z,19.71
2022-09-09T06:38:43.597Z,19.53
2022-09-09T06:41:11.494Z,19.58
2022-09-09T06:43:38.221Z,19.48
2022-09-09T06:46:06.370Z,19.52
2022-09-09T06:48:33.553Z,19.39
2022-09-09T06:51:08.599Z,19.55
2022-09-09T06:53:36.699Z,19.40
2022-09-09T06:56:18.131Z,19.39
2022-09-09T06:58:45.903Z,19.50
2022-09-09T07:01:14.681Z,19.43
2022-09-09T07:03:43.063Z,19.79
2022-09-09T07:06:21.787Z,19.65
2022-09-09T07:08:57.082Z,19.65
2022-09-09T07:11:27.730Z,19.65
2022-09-09T07:13:54.613Z,19.71
2022-09-09T07:16:24.644Z,19.95
2022-09-09T07:18:52.251Z,19.90
2022-09-09T07:21:19.835Z,19.69
2022-09-09T07:23:46.222Z,19.92
2022-09-09T07:26:20.218Z,19.96
2022-09-09T07:28:47.580Z,19.86
2022-09-09T07:31:19.054Z,20.05
2022-09-09T07:33:46.226Z,20.05
2022-09-09T07:36:24.461Z,19.97
2022-09-09T07:38:59.881Z,20.08
2022-09-09T07:41:36.608Z,20.24
2022-09-09T07:44:12.796Z,20.28
2022-09-09T07:46:40.747Z,20.28
2022-09-09T07:49:07.718Z,20.29
2022-09-09T07:51:36.872Z,20.10
2022-09-09T07:54:08.579Z,20.32
2022-09-09T07:56:35.266Z,20.34
2022-09-09T07:59:02.096Z,20.42
2022-09-09T08:01:40.145Z,20.51
2022-09-09T08:04:09.522Z,20.50
2022-09-09T08:06:40.315Z,20.49
2022-09-09T08:09:08.608Z,20.80
2022-09-09T08:11:39.318Z,20.72
2022-09-09T08:14:08.410Z,20.76
2022-09-09T08:16:37.423Z,21.00
2022-09-09T08:19:04.819Z,20.81
2022-09-09T08:21:34.061Z,20.99
2022-09-09T08:24:02.548Z,20.87
2022-09-09T08:26:31.638Z,20.87
2022-09-09T08:28:59.840Z,20.95
2022-09-09T08:31:29.362Z,21.03
2022-09-09T08:33:57.050Z,21.13
2022-09-09T08:36:26.520Z,21.19
2022-09-09T08:38:56.078Z,21.00
2022-09-09T08:41:37.354Z,20.95
2022-09-09T08:44:12.295Z,21.07
2022-09-09T08:47:03.464Z,21.29
2022-09-09T08:49:54.667Z,21.43
2022-09-09T08:52:28.163Z,21.45
2022-09-09T08:54:58.919Z,21.23
2022-09-09T08:57:29.190Z,21.36
2022-09-09T08:59:57.581Z,21.41
2022-09-09T09:02:50.206Z,21.43
2022-09-09T09:05:31.001Z,21.39
2022-09-09T09:08:18.502Z,21.38
2022-09-09T09:10:51.580Z,21.32
2022-09-09T09:13:44.220Z,21.42
2022-09-09T09:16:24.636Z,21.61
2022-09-09T09:18:52.140Z,21.85
2022-09-09T09:21:39.770Z,21.96
2022-09-09T09:24:19.731Z,21.92
2022-09-09T09:26:48.962Z,21.89
2022-09-09T09:29:20.693Z,21.83
2022-09-09T09:31:53.031Z,21.93
2022-09-09T09:34:19.341Z,22.05
2022-09-09T09:36:53.426Z,22.01
2022-09-09T09:42:20.331Z,22.02
2022-09-09T09:44:49.731Z,22.09
2022-09-09T09:47:22.064Z,21.98
2022-09-09T09:50:00.254Z,22.03
2022-09-09T09:52:29.581Z,21.87
2022-09-09T09:55:01.830Z,21.99
2022-09-09T09:57:32.843Z,21.99
2022-09-09T10:00:14.881Z,22.21
2022-09-09T10:02:44.518Z,22.31
2022-09-09T10:05:26.604Z,22.35
2022-09-09T10:08:13.744Z,22.27
2022-09-09T10:11:07.859Z,22.30
2022-09-09T10:13:46.909Z,22.20
2022-09-09T10:16:34.934Z,22.16
2022-09-09T10:19:05.376Z,22.20
2022-09-09T10:21:59.517Z,22.28
2022-09-09T10:24:53.949Z,22.24
2022-09-09T10:27:26.720Z,22.24
2022-09-09T10:30:03.020Z,22.38
2022-09-09T10:33:07.016Z,22.29
2022-09-09T10:35:40.809Z,22.03
2022-09-09T10:38:27.024Z,21.95
2022-09-09T10:40:57.480Z,22.09
2022-09-09T10:43:42.081Z,22.28
2022-09-09T10:46:30.228Z,22.34
2022-09-09T10:49:04.963Z,22.28
2022-09-09T10:51:34.916Z,22.44
2022-09-09T10:54:41.403Z,22.56
2022-09-09T10:57:35.081Z,22.48
2022-09-09T11:00:15.561Z,22.69
2022-09-09T11:02:43.007Z,22.32
2022-09-09T11:05:34.772Z,22.78
2022-09-09T11:08:06.337Z,22.88
2022-09-09T11:11:03.403Z,22.92
2022-09-09T11:13:52.421Z,22.74
2022-09-09T11:16:21.799Z,22.63
2022-09-09T11:18:48.553Z,22.41
2022-09-09T11:21:27.162Z,22.57
2022-09-09T11:24:02.167Z,22.60
2022-09-09T11:26:45.790Z,22.64
2022-09-09T11:29:38.002Z,22.73
2022-09-09T11:32:45.795Z,22.72
2022-09-09T11:35:33.457Z,22.96
2022-09-09T11:38:06.040Z,22.71
2022-09-09T11:40:33.793Z,22.32
2022-09-09T11:43:06.827Z,22.32
2022-09-09T11:45:36.338Z,22.31
2022-09-09T11:48:04.671Z,22.31
2022-09-09T11:50:37.352Z,22.00
2022-09-09T11:53:23.520Z,21.82
2022-09-09T11:56:09.987Z,21.76
2022-09-09T11:58:42.591Z,21.74
2022-09-09T12:01:30.870Z,21.80
2022-09-09T12:04:12.554Z,21.79
2022-09-09T12:06:47.778Z,21.55
2022-09-09T12:09:49.413Z,20.82
2022-09-09T12:12:15.864Z,20.44
2022-09-09T12:14:42.242Z,20.35
2022-09-09T12:17:17.537Z,20.35
2022-09-09T12:19:43.869Z,20.32
2022-09-09T12:22:31.843Z,20.37
2022-09-09T12:25:10.312Z,20.56
2022-09-09T12:28:05.299Z,20.59
2022-09-09T12:30:45.821Z,20.68
2022-09-09T12:33:17.471Z,20.73
2022-09-09T12:35:49.930Z,21.02
2022-09-09T12:38:26.613Z,21.17
2022-09-09T12:40:58.269Z,21.27
2022-09-09T12:43:26.463Z,21.18
2022-09-09T12:46:09.571Z,21.35
2022-09-09T12:48:39.979Z,21.51
2022-09-09T12:51:17.829Z,21.41
2022-09-09T12:53:47.041Z,21.70
2022-09-09T12:56:22.224Z,21.94
2022-09-09T12:58:52.524Z,22.10
2022-09-09T13:01:30.269Z,21.93
2022-09-09T13:03:57.761Z,22.16
2022-09-09T13:06:28.889Z,22.38
2022-09-09T13:08:59.945Z,22.19
2022-09-09T13:11:40.473Z,22.11
2022-09-09T13:14:07.428Z,22.08
2022-09-09T13:16:41.943Z,22.25
2022-09-09T13:19:14.846Z,22.07
2022-09-09T13:21:41.556Z,22.17
2022-09-09T13:24:30.375Z,22.35
2022-09-09T13:26:59.127Z,22.35
2022-09-09T13:29:25.634Z,22.52
2022-09-09T13:31:56.467Z,22.44
2022-09-09T13:34:31.727Z,22.26
2022-09-09T13:37:03.532Z,22.33
2022-09-09T13:39:30.241Z,22.08
2022-09-09T13:41:56.953Z,22.06
2022-09-09T13:44:34.919Z,21.79
2022-09-09T13:47:08.131Z,20.97
2022-09-09T13:49:36.702Z,20.38
2022-09-09T13:52:17.738Z,20.06
2022-09-09T13:54:47.768Z,19.68
2022-09-09T13:57:22.864Z,19.33
2022-09-09T14:00:04.679Z,19.27
2022-09-09T14:02:32.123Z,19.29
2022-09-09T14:04:58.571Z,19.10
2022-09-09T14:07:26.177Z,18.82
2022-09-09T14:09:53.325Z,18.70
2022-09-09T14:12:19.768Z,18.52
2022-09-09T14:14:46.180Z,18.44
2022-09-09T14:17:12.461Z,18.59
2022-09-09T14:19:38.938Z,18.78
2022-09-09T14:22:05.361Z,19.13
2022-09-09T14:24:31.879Z,19.29
2022-09-09T14:26:58.222Z,19.44
2022-09-09T14:29:25.958Z,19.76
2022-09-09T14:31:52.319Z,20.09
2022-09-09T14:34:19.431Z,20.16
2022-09-09T14:36:46.626Z,20.21
2022-09-09T14:39:13.159Z,20.22
2022-09-09T14:41:39.451Z,20.47
2022-09-09T14:44:05.826Z,20.60
2022-09-09T14:46:34.215Z,20.83
2022-09-09T14:49:00.764Z,20.91
2022-09-09T14:51:29.017Z,21.17
2022-09-09T14:53:58.614Z,21.11
2022-09-09T14:56:28.657Z,21.39
2022-09-09T14:58:58.875Z,21.69
2022-09-09T15:01:28.168Z,21.86
2022-09-09T15:03:58.869Z,21.89
2022-09-09T15:06:27.344Z,22.11
2022-09-09T15:08:54.510Z,22.15
2022-09-09T15:11:22.375Z,22.38
2022-09-09T15:13:53.577Z,22.53
2022-09-09T15:16:20.974Z,22.35
2022-09-09T15:18:50.930Z,22.26
2022-09-09T15:21:22.572Z,22.32
2022-09-09T15:23:49.855Z,22.14
2022-09-09T15:26:16.519Z,22.52
2022-09-09T15:28:45.270Z,22.82
2022-09-09T15:31:23.696Z,22.94
2022-09-09T15:33:54.240Z,23.00
2022-09-09T15:36:23.672Z,22.74
2022-09-09T15:38:50.195Z,22.58
2022-09-09T15:41:18.027Z,22.51
2022-09-09T15:43:50.800Z,22.50
2022-09-09T15:46:20.213Z,22.37
2022-09-09T15:48:49.056Z,22.26
2022-09-09T15:51:41.254Z,22.12
2022-09-09T15:54:04.373Z,22.33
2022-09-09T15:56:31.410Z,22.25
2022-09-09T15:58:58.373Z,22.24
2022-09-09T16:01:25.730Z,22.32
2022-09-09T16:03:52.711Z,22.15
2022-09-09T16:06:22.333Z,21.46
2022-09-09T16:08:52.619Z,21.08
2022-09-09T16:11:30.098Z,20.89
2022-09-09T16:13:56.964Z,20.70
2022-09-09T16:16:25.842Z,20.41
2022-09-09T16:18:55.683Z,20.86
2022-09-09T16:21:34.165Z,21.40
2022-09-09T16:24:03.314Z,21.49
2022-09-09T16:26:32.271Z,21.61
2022-09-09T16:29:02.229Z,21.56
2022-09-09T16:31:30.485Z,21.60
2022-09-09T16:33:56.949Z,21.53
2022-09-09T16:36:25.539Z,21.81
2022-09-09T16:38:58.180Z,21.76
2022-09-09T16:41:26.186Z,21.70
2022-09-09T16:43:57.663Z,21.81
2022-09-09T16:46:25.383Z,21.73
2022-09-09T16:48:52.595Z,21.73
2022-09-09T16:51:30.640Z,21.90
2022-09-09T16:53:59.532Z,21.94
2022-09-09T16:56:28.056Z,21.99
2022-09-09T16:58:57.332Z,21.91
2022-09-09T17:01:30.395Z,22.00
2022-09-09T17:04:01.123Z,21.87
2022-09-09T17:06:29.780Z,21.85
2022-09-09T17:08:57.970Z,21.83
2022-09-09T17:11:24.629Z,21.86
2022-09-09T17:13:52.741Z,21.76
2022-09-09T17:16:22.677Z,21.75
2022-09-09T17:18:50.800Z,21.75
2022-09-09T17:21:20.017Z,21.63
2022-09-09T17:23:47.357Z,21.72
2022-09-09T17:26:17.135Z,21.58
2022-09-09T17:28:46.444Z,21.65
2022-09-09T17:31:15.133Z,21.55
2022-09-09T17:33:45.076Z,21.64
2022-09-09T17:36:15.062Z,21.47
2022-09-09T17:38:43.414Z,21.46
2022-09-09T17:41:37.032Z,21.44
2022-09-09T17:44:04.725Z,21.28
2022-09-09T17:46:35.922Z,21.35
2022-09-09T17:49:05.501Z,21.53
2022-09-09T17:51:33.253Z,21.41
2022-09-09T17:54:01.901Z,21.51
2022-09-09T17:56:31.499Z,21.45
2022-09-09T17:58:59.177Z,21.33
2022-09-09T18:01:29.122Z,21.09
2022-09-09T18:04:01.343Z,21.13
2022-09-09T18:06:31.792Z,21.03
2022-09-09T18:09:02.262Z,21.20
2022-09-09T18:11:31.985Z,21.08
2022-09-09T18:14:00.897Z,20.77
2022-09-09T18:16:30.510Z,20.92
2022-09-09T18:19:03.318Z,20.93
2022-09-09T18:21:32.998Z,20.96
2022-09-09T18:24:00.947Z,21.23
2022-09-09T18:26:28.046Z,21.20
2022-09-09T18:28:59.323Z,21.18
2022-09-09T18:31:27.658Z,21.01
2022-09-09T18:33:56.778Z,21.24
2022-09-09T18:36:26.500Z,21.10
2022-09-09T18:38:53.207Z,21.12
2022-09-09T18:41:22.536Z,20.99
2022-09-09T18:43:50.337Z,20.84
2022-09-09T18:46:18.158Z,20.84
2022-09-09T18:48:45.756Z,20.61
2022-09-09T18:51:14.159Z,20.52
2022-09-09T18:53:43.803Z,20.52
2022-09-09T18:56:13.311Z,20.53
2022-09-09T18:58:40.365Z,20.45
2022-09-09T19:01:12.326Z,20.41
2022-09-09T19:03:38.874Z,20.69
2022-09-09T19:06:09.492Z,20.48
2022-09-09T19:08:37.817Z,20.34
2022-09-09T19:11:06.091Z,20.09
2022-09-09T19:13:33.170Z,20.10
2022-09-09T19:16:07.570Z,20.11
2022-09-09T19:18:34.878Z,20.05
2022-09-09T19:21:13.506Z,19.93
2022-09-09T19:23:41.274Z,19.66
2022-09-09T19:26:08.102Z,19.55
2022-09-09T19:28:35.809Z,19.37
2022-09-09T19:31:06.795Z,19.43
2022-09-09T19:33:34.085Z,19.20
2022-09-09T19:36:02.330Z,19.37
2022-09-09T19:38:30.099Z,19.32
2022-09-09T19:40:56.788Z,19.29
2022-09-09T19:43:24.655Z,19.18
2022-09-09T19:46:02.278Z,19.22
2022-09-09T19:48:33.460Z,19.20
2022-09-09T19:51:04.714Z,19.31
2022-09-09T19:53:34.979Z,19.47
2022-09-09T19:56:03.486Z,19.30
2022-09-09T19:58:34.325Z,19.56
2022-09-09T20:01:11.386Z,19.57
2022-09-09T20:03:39.701Z,19.58
2022-09-09T20:06:08.677Z,19.54
2022-09-09T20:08:36.470Z,19.45
2022-09-09T20:11:04.054Z,19.46
2022-09-09T20:13:32.870Z,19.52
2022-09-09T20:16:03.738Z,19.64
2022-09-09T20:18:32.377Z,19.67
2022-09-09T20:21:00.771Z,19.77
2022-09-09T20:23:31.106Z,19.80
2022-09-09T20:26:02.941Z,19.78
2022-09-09T20:28:29.824Z,19.81
2022-09-09T20:30:56.163Z,19.77
2022-09-09T20:33:22.526Z,19.79
2022-09-09T20:35:48.960Z,19.85
2022-09-09T20:38:15.401Z,19.94
2022-09-09T20:40:42.096Z,19.95
2022-09-09T20:43:12.544Z,19.86
2022-09-09T20:45:39.189Z,19.84
2022-09-09T20:48:07.206Z,19.97
2022-09-09T20:50:36.800Z,19.79
2022-09-09T20:53:03.813Z,20.00
2022-09-09T20:55:34.270Z,19.79
2022-09-09T20:58:01.136Z,19.99
2022-09-09T21:00:29.928Z,19.99
2022-09-09T21:02:56.678Z,19.88
2022-09-09T21:05:24.303Z,19.84
2022-09-09T21:07:52.805Z,19.85
2022-09-09T21:10:20.127Z,19.80
2022-09-09T21:12:46.589Z,19.85
2022-09-09T21:15:12.879Z,19.84
2022-09-09T21:17:40.166Z,19.88
2022-09-09T21:20:07.213Z,20.01
2022-09-09T21:22:33.562Z,19.88
2022-09-09T21:24:59.874Z,20.00
2022-09-09T21:27:26.200Z,19.91
2022-09-09T21:29:52.588Z,19.96
2022-09-09T21:32:18.900Z,20.00
2022-09-09T21:34:45.791Z,19.94
2022-09-09T21:37:12.119Z,19.84
2022-09-09T21:39:38.638Z,19.82
2022-09-09T21:42:05.130Z,20.06
2022-09-09T21:44:31.467Z,19.94
2022-09-09T21:46:57.765Z,19.94
2022-09-09T21:49:24.061Z,19.84
2022-09-09T21:51:50.851Z,19.84
2022-09-09T21:54:18.592Z,19.84
2022-09-09T21:56:45.110Z,19.69
2022-09-09T21:59:11.991Z,19.60
2022-09-09T22:01:40.189Z,19.54
2022-09-09T22:04:06.566Z,19.52
2022-09-09T22:06:32.985Z,19.34
2022-09-09T22:08:59.419Z,19.40
2022-09-09T22:11:25.798Z,19.31
2022-09-09T22:13:53.262Z,19.30
2022-09-09T22:16:22.419Z,19.58
2022-09-09T22:18:54.644Z,19.63
2022-09-09T22:21:22.063Z,19.61
2022-09-09T22:23:57.264Z,19.65
2022-09-09T22:26:25.301Z,19.53
2022-09-09T22:28:53.695Z,19.52
2022-09-09T22:31:22.487Z,19.35
2022-09-09T22:33:49.154Z,19.25
2022-09-09T22:36:15.505Z,19.11
2022-09-09T22:38:42.363Z,19.09
2022-09-09T22:41:08.744Z,18.96
2022-09-09T22:43:35.042Z,19.00
2022-09-09T22:46:02.342Z,19.09
2022-09-09T22:48:32.952Z,19.07
2022-09-09T22:51:04.414Z,19.16
2022-09-09T22:53:34.191Z,19.14
2022-09-09T22:56:02.920Z,19.16
2022-09-09T22:58:31.631Z,18.91
2022-09-09T23:00:59.465Z,18.68
2022-09-09T23:03:27.972Z,18.62
2022-09-09T23:06:01.574Z,18.83
2022-09-09T23:08:36.749Z,18.89
2022-09-09T23:11:11.376Z,19.05
2022-09-09T23:13:41.422Z,19.14
2022-09-09T23:16:12.880Z,18.75
2022-09-09T23:18:43.468Z,18.97
2022-09-09T23:21:11.770Z,18.76
2022-09-09T23:23:40.558Z,18.86
2022-09-09T23:26:09.390Z,18.66
2022-09-09T23:28:37.863Z,18.88
2022-09-09T23:31:09.833Z,18.96
2022-09-09T23:33:36.988Z,19.00
2022-09-09T23:36:08.283Z,19.03
2022-09-09T23:38:36.240Z,19.05
2022-09-09T23:41:03.458Z,19.17
2022-09-09T23:43:29.923Z,19.07
2022-09-09T23:45:56.934Z,19.29
2022-09-09T23:48:28.002Z,19.40
2022-09-09T23:50:54.958Z,19.33
2022-09-09T23:53:22.082Z,19.46
2022-09-09T23:55:48.506Z,19.47
2022-09-09T23:58:15.061Z,19.42
